Time;durP1;ratioP1;P1;durP2;ratioP2;P2;SDS_P1;SDS_P2;PMS_P1;PMS_P2;Temp;Humidity;BMP_temperature;BMP_pressure;BME280_temperature;BME280_humidity;BME280_pressure;Samples;Min_cycle;Max_cycle;Signal;HPM_P1;HPM_P2
2021/12/17 03:34:56;;;;;;;;;;;;;;;;;;;;;
2021/12/17 03:38:18;;;;;;;;;;;;;;;;;;;;;
2021/12/17 05:26:34;;;;;;;18.98;9.02;;;;;;;;;;4756921;30;20042;-84
2021/12/17 08:50:21;;;;;;;25.35;10.07;;;;;;;;;;4909498;29;20040;-87
2021/12/17 08:52:47;;;;;;;30.48;11.68;;;;;;;;;;4878228;29;20025;-78
2021/12/17 08:55:12;;;;;;;31.63;10.70;;;;;;;;;;4882778;29;20025;-78
2021/12/17 08:57:39;;;;;;;32.33;11.50;;;;;;;;;;4887804;29;20035;-78
2021/12/17 09:00:08;;;;;;;21.98;10.00;;;;;;;;;;4887969;29;20036;-79
2021/12/17 09:02:35;;;;;;;23.92;10.18;;;;;;;;;;4887104;29;20037;-79
2021/12/17 09:05:01;;;;;;;28.75;9.80;;;;;;;;;;4886953;29;20029;-82
2021/12/17 09:07:27;;;;;;;22.83;9.75;;;;;;;;;;4886920;29;20093;-79
2021/12/17 09:09:52;;;;;;;20.60;8.73;;;;;;;;;;4885053;29;20458;-78
2021/12/17 09:12:17;;;;;;;21.52;8.73;;;;;;;;;;4884823;29;20028;-80
2021/12/17 09:14:52;;;;;;;21.50;9.45;;;;;;;;;;4869851;29;20025;-86
2021/12/17 09:17:24;;;;;;;27.13;8.30;;;;;;;;;;4870155;29;20491;-85
2021/12/17 09:19:52;;;;;;;18.23;8.05;;;;;;;;;;4869919;29;20036;-83
2021/12/17 09:22:17;;;;;;;25.20;10.25;;;;;;;;;;4869794;29;20040;-82
2021/12/17 09:24:53;;;;;;;25.20;10.38;;;;;;;;;;4870645;29;20037;-81
2021/12/17 09:27:23;;;;;;;26.95;9.30;;;;;;;;;;4870021;29;20029;-84
2021/12/17 09:29:54;;;;;;;26.88;9.75;;;;;;;;;;4870701;29;20040;-81
2021/12/17 09:32:38;;;;;;;25.15;10.75;;;;;;;;;;4869588;29;20124;-81
2021/12/17 09:35:21;;;;;;;21.27;10.00;;;;;;;;;;4886776;29;20065;-82
2021/12/17 09:38:22;;;;;;;24.38;8.30;;;;;;;;;;4869635;29;20036;-83
2021/12/17 09:40:58;;;;;;;25.25;9.43;;;;;;;;;;4869615;29;20029;-81
2021/12/17 09:43:40;;;;;;;17.77;7.88;;;;;;;;;;4869168;29;20025;-81
2021/12/17 09:46:47;;;;;;;;;;;;;;;;;;;;;
2021/12/17 09:52:06;;;;;;;19.45;8.90;;;;;;;;;;4886055;29;20480;-81
2021/12/17 09:57:36;;;;;;;;;;;;;;;;;;4886971;29;20028;-81
2021/12/17 10:00:19;;;;;;;19.60;8.98;;;;;;;;;;4886414;29;19918;-82
2021/12/17 10:03:09;;;;;;;;;;;;;;;;;;;;;
2021/12/17 10:05:50;;;;;;;24.33;9.80;;;;;;;;;;4884118;29;20025;-82
2021/12/17 10:08:21;;;;;;;22.58;9.18;;;;;;;;;;4867443;29;20120;-83
2021/12/17 10:11:20;;;;;;;20.27;9.68;;;;;;;;;;4867259;29;20040;-83
2021/12/17 10:17:02;;;;;;;25.92;9.50;;;;;;;;;;4885578;29;20089;-82
2021/12/17 10:54:28;;;;;;;;;;;;;;;;;;;;;
2021/12/17 11:00:12;;;;;;;21.20;9.40;;;;;;;;;;4846488;29;20412;-81
2021/12/17 11:03:09;;;;;;;23.10;9.57;;;;;;;;;;4841013;29;20042;-81
2021/12/17 11:05:46;;;;;;;20.80;8.65;;;;;;;;;;4841512;29;20457;-82
2021/12/17 11:08:30;;;;;;;24.23;11.02;;;;;;;;;;4845692;29;20102;-83
2021/12/17 11:11:08;;;;;;;24.02;10.27;;;;;;;;;;4846811;29;20114;-82
2021/12/17 11:13:58;;;;;;;24.10;9.82;;;;;;;;;;4845802;29;20382;-81
2021/12/17 11:16:26;;;;;;;23.60;10.10;;;;;;;;;;4844213;29;20033;-81
2021/12/17 11:19:02;;;;;;;;;;;;;;;;;;;;;
2021/12/17 11:21:29;;;;;;;19.08;8.13;;;;;;;;;;4846526;29;20036;-81
2021/12/17 11:24:01;;;;;;;19.38;8.35;;;;;;;;;;4845218;29;20105;-81
2021/12/17 11:26:36;;;;;;;16.58;7.68;;;;;;;;;;4845498;29;20535;-81
2021/12/17 11:29:05;;;;;;;18.15;8.40;;;;;;;;;;4845772;29;20065;-82
2021/12/17 11:31:40;;;;;;;21.10;8.27;;;;;;;;;;4829823;29;20102;-81
2021/12/17 11:34:21;;;;;;;;;;;;;;;;;;;;;
2021/12/17 11:36:47;;;;;;;18.02;7.82;;;;;;;;;;4846439;29;20029;-81
2021/12/17 11:39:23;;;;;;;18.85;8.20;;;;;;;;;;4830996;29;20065;-84
2021/12/17 11:42:47;;;;;;;23.70;8.45;;;;;;;;;;4831561;29;20069;-83
2021/12/17 11:49:45;;;;;;;;;;;;;;;;;;;;;
2021/12/17 12:47:02;;;;;;;;;;;;;;;;;;;;;
2021/12/17 12:57:39;;;;;;;17.38;7.05;;;;;;;;;;4865926;29;20451;-87
2021/12/17 14:47:11;;;;;;;21.58;10.35;;;;;;;;;;3251921;27;20060;-81
2021/12/17 15:02:03;;;;;;;23.58;8.98;;;;;;;;;;4888890;29;20415;-81
2021/12/17 16:21:42;;;;;;;19.38;9.40;;;;;;;;;;4901493;29;20073;-82
2021/12/17 16:24:12;;;;;;;24.63;9.60;;;;;;;;;;4884818;29;20108;-85
2021/12/17 16:26:41;;;;;;;21.77;9.93;;;;;;;;;;4866768;29;20029;-86
2021/12/17 16:30:32;;;;;;;23.98;10.38;;;;;;;;;;4866685;29;20214;-85
2021/12/17 16:41:45;;;;;;;18.13;9.65;;;;;;;;;;5013023;23;20068;-86
2021/12/17 17:48:37;;;;;;;18.33;9.57;;;;;;;;;;4906929;29;20065;-84
2021/12/17 18:24:47;;;;;;;17.02;8.35;;;;;;;;;;4885290;29;20040;-85
2021/12/17 18:32:07;;;;;;;;;;;;;;;;;;;;;
2021/12/17 21:54:17;;;;;;;8.45;4.15;;;;;;;;;;4853162;29;20516;-84
2021/12/17 21:56:59;;;;;;;10.20;4.40;;;;;;;;;;4860860;29;20049;-83
2021/12/17 21:59:32;;;;;;;10.52;5.10;;;;;;;;;;4868773;29;20117;-84
2021/12/17 22:02:30;;;;;;;;;;;;;;;;;;;;;
2021/12/17 22:05:33;;;;;;;9.02;5.20;;;;;;;;;;4867881;29;20283;-83
2021/12/17 22:08:23;;;;;;;12.55;5.13;;;;;;;;;;4850767;29;20034;-85
2021/12/17 22:11:15;;;;;;;8.68;4.50;;;;;;;;;;4852127;29;20030;-82
2021/12/17 22:14:16;;;;;;;12.55;5.03;;;;;;;;;;4867835;29;20060;-83
2021/12/17 22:16:56;;;;;;;10.18;5.38;;;;;;;;;;4867542;29;20025;-83
2021/12/17 22:25:41;;;;;;;11.43;5.85;;;;;;;;;;4870433;29;20057;-83
2021/12/17 22:28:28;;;;;;;;;;;;;;;;;;4866914;29;20212;-83
2021/12/17 22:31:41;;;;;;;13.48;5.65;;;;;;;;;;4867517;29;20331;-83
2021/12/17 22:34:18;;;;;;;13.33;5.63;;;;;;;;;;4861398;29;20033;-83
2021/12/17 22:36:52;;;;;;;11.13;5.72;;;;;;;;;;4864369;29;20474;-83
2021/12/17 22:40:02;;;;;;;12.02;5.70;;;;;;;;;;4863882;29;20093;-83
2021/12/17 22:45:35;;;;;;;;;;;;;;;;;;;;;
2021/12/17 22:48:07;;;;;;;11.82;5.32;;;;;;;;;;4866058;29;20191;-83
2021/12/17 22:51:25;;;;;;;;;;;;;;;;;;;;;
2021/12/17 22:54:17;;;;;;;12.35;5.45;;;;;;;;;;4848381;29;20046;-82
2021/12/17 22:57:32;;;;;;;10.52;5.32;;;;;;;;;;4862950;29;20073;-82
2021/12/17 23:01:12;;;;;;;12.15;5.45;;;;;;;;;;4846966;29;20108;-82
2021/12/17 23:10:59;;;;;;;;;;;;;;;;;;;;;
2021/12/17 23:14:18;;;;;;;;;;;;;;;;;;;;;
2021/12/17 23:59:15;;;;;;;;;;;;;;;;;;;;;
